sensor_id;sensor_type;location;lat;lon;timestamp;P1;durP1;ratioP1;P2;durP2;ratioP2
17065;SDS011;23120;52.336;21.182;2022-09-11T00:00:38;9.47;;;8.57;;
17065;SDS011;23120;52.336;21.182;2022-09-11T00:03:06;9.57;;;8.50;;
17065;SDS011;23120;52.336;21.182;2022-09-11T00:05:35;10.17;;;8.83;;
17065;SDS011;23120;52.336;21.182;2022-09-11T00:08:05;9.87;;;8.87;;
17065;SDS011;23120;52.336;21.182;2022-09-11T00:10:33;9.83;;;8.93;;
17065;SDS011;23120;52.336;21.182;2022-09-11T00:13:04;11.63;;;9.30;;
17065;SDS011;23120;52.336;21.182;2022-09-11T00:15:34;9.60;;;8.70;;
17065;SDS011;23120;52.336;21.182;2022-09-11T00:18:02;10.30;;;9.30;;
17065;SDS011;23120;52.336;21.182;2022-09-11T00:20:29;10.00;;;9.00;;
17065;SDS011;23120;52.336;21.182;2022-09-11T00:22:58;10.17;;;8.77;;
17065;SDS011;23120;52.336;21.182;2022-09-11T00:25:29;10.60;;;9.60;;
17065;SDS011;23120;52.336;21.182;2022-09-11T00:27:58;10.17;;;9.27;;
17065;SDS011;23120;52.336;21.182;2022-09-11T00:30:25;10.23;;;9.30;;
17065;SDS011;23120;52.336;21.182;2022-09-11T00:32:53;9.87;;;8.90;;
17065;SDS011;23120;52.336;21.182;2022-09-11T00:35:20;10.27;;;9.37;;
17065;SDS011;23120;52.336;21.182;2022-09-11T00:37:47;9.27;;;8.43;;
17065;SDS011;23120;52.336;21.182;2022-09-11T00:40:15;9.47;;;8.50;;
17065;SDS011;23120;52.336;21.182;2022-09-11T00:42:44;9.57;;;8.60;;
17065;SDS011;23120;52.336;21.182;2022-09-11T00:45:19;9.87;;;8.97;;
17065;SDS011;23120;52.336;21.182;2022-09-11T00:47:47;9.67;;;8.77;;
17065;SDS011;23120;52.336;21.182;2022-09-11T00:50:17;10.40;;;9.40;;
17065;SDS011;23120;52.336;21.182;2022-09-11T00:52:50;9.90;;;8.90;;
17065;SDS011;23120;52.336;21.182;2022-09-11T00:55:20;10.30;;;9.20;;
17065;SDS011;23120;52.336;21.182;2022-09-11T00:57:51;9.83;;;8.93;;
17065;SDS011;23120;52.336;21.182;2022-09-11T01:00:23;10.67;;;9.67;;
17065;SDS011;23120;52.336;21.182;2022-09-11T01:02:50;11.70;;;10.10;;
17065;SDS011;23120;52.336;21.182;2022-09-11T01:05:19;10.43;;;9.43;;
17065;SDS011;23120;52.336;21.182;2022-09-11T01:07:47;10.73;;;9.60;;
17065;SDS011;23120;52.336;21.182;2022-09-11T01:10:18;10.80;;;9.80;;
17065;SDS011;23120;52.336;21.182;2022-09-11T01:12:49;11.43;;;10.43;;
17065;SDS011;23120;52.336;21.182;2022-09-11T01:15:28;10.87;;;9.93;;
17065;SDS011;23120;52.336;21.182;2022-09-11T01:18:01;11.20;;;10.17;;
17065;SDS011;23120;52.336;21.182;2022-09-11T01:20:36;12.47;;;10.50;;
17065;SDS011;23120;52.336;21.182;2022-09-11T01:26:48;12.13;;;10.60;;
17065;SDS011;23120;52.336;21.182;2022-09-11T01:29:29;12.43;;;11.23;;
17065;SDS011;23120;52.336;21.182;2022-09-11T01:32:03;12.73;;;11.47;;
17065;SDS011;23120;52.336;21.182;2022-09-11T01:34:36;11.73;;;10.60;;
17065;SDS011;23120;52.336;21.182;2022-09-11T01:37:11;12.07;;;10.87;;
17065;SDS011;23120;52.336;21.182;2022-09-11T01:39:43;11.77;;;10.57;;
17065;SDS011;23120;52.336;21.182;2022-09-11T01:42:16;11.13;;;10.13;;
17065;SDS011;23120;52.336;21.182;2022-09-11T01:44:49;11.40;;;10.40;;
17065;SDS011;23120;52.336;21.182;2022-09-11T01:47:18;11.57;;;10.13;;
17065;SDS011;23120;52.336;21.182;2022-09-11T01:49:47;10.70;;;9.73;;
17065;SDS011;23120;52.336;21.182;2022-09-11T01:52:22;9.83;;;8.90;;
17065;SDS011;23120;52.336;21.182;2022-09-11T01:54:53;10.40;;;9.40;;
17065;SDS011;23120;52.336;21.182;2022-09-11T01:57:25;10.07;;;9.27;;
17065;SDS011;23120;52.336;21.182;2022-09-11T01:59:57;11.07;;;9.93;;
17065;SDS011;23120;52.336;21.182;2022-09-11T02:02:28;9.80;;;8.90;;
17065;SDS011;23120;52.336;21.182;2022-09-11T02:05:01;10.37;;;9.37;;
17065;SDS011;23120;52.336;21.182;2022-09-11T02:07:33;9.47;;;8.67;;
17065;SDS011;23120;52.336;21.182;2022-09-11T02:10:05;9.47;;;8.57;;
17065;SDS011;23120;52.336;21.182;2022-09-11T02:12:37;9.83;;;8.90;;
17065;SDS011;23120;52.336;21.182;2022-09-11T02:15:11;9.50;;;8.50;;
17065;SDS011;23120;52.336;21.182;2022-09-11T02:17:45;9.97;;;8.97;;
17065;SDS011;23120;52.336;21.182;2022-09-11T02:20:17;9.33;;;8.50;;
17065;SDS011;23120;52.336;21.182;2022-09-11T02:22:45;8.93;;;8.13;;
17065;SDS011;23120;52.336;21.182;2022-09-11T02:25:13;9.70;;;8.70;;
17065;SDS011;23120;52.336;21.182;2022-09-11T02:27:44;9.00;;;8.20;;
17065;SDS011;23120;52.336;21.182;2022-09-11T02:30:12;8.57;;;7.77;;
17065;SDS011;23120;52.336;21.182;2022-09-11T02:32:40;8.93;;;8.13;;
17065;SDS011;23120;52.336;21.182;2022-09-11T02:35:09;11.27;;;8.37;;
17065;SDS011;23120;52.336;21.182;2022-09-11T02:37:41;9.47;;;8.17;;
17065;SDS011;23120;52.336;21.182;2022-09-11T02:43:16;9.27;;;8.37;;
17065;SDS011;23120;52.336;21.182;2022-09-11T02:45:57;9.97;;;9.00;;
17065;SDS011;23120;52.336;21.182;2022-09-11T02:48:35;9.13;;;8.23;;
17065;SDS011;23120;52.336;21.182;2022-09-11T02:51:15;8.13;;;7.43;;
17065;SDS011;23120;52.336;21.182;2022-09-11T02:53:57;8.80;;;8.00;;
17065;SDS011;23120;52.336;21.182;2022-09-11T02:56:30;8.07;;;7.27;;
17065;SDS011;23120;52.336;21.182;2022-09-11T02:59:05;9.20;;;7.40;;
17065;SDS011;23120;52.336;21.182;2022-09-11T03:01:47;7.63;;;6.93;;
17065;SDS011;23120;52.336;21.182;2022-09-11T03:04:16;7.90;;;7.10;;
17065;SDS011;23120;52.336;21.182;2022-09-11T03:06:45;7.70;;;6.97;;
17065;SDS011;23120;52.336;21.182;2022-09-11T03:09:13;7.30;;;6.70;;
17065;SDS011;23120;52.336;21.182;2022-09-11T03:11:41;7.50;;;6.90;;
17065;SDS011;23120;52.336;21.182;2022-09-11T03:14:08;9.20;;;6.83;;
17065;SDS011;23120;52.336;21.182;2022-09-11T03:16:37;8.13;;;7.30;;
17065;SDS011;23120;52.336;21.182;2022-09-11T03:19:08;7.23;;;6.57;;
17065;SDS011;23120;52.336;21.182;2022-09-11T03:21:37;7.37;;;6.70;;
17065;SDS011;23120;52.336;21.182;2022-09-11T03:24:04;8.47;;;7.53;;
17065;SDS011;23120;52.336;21.182;2022-09-11T03:26:34;7.63;;;6.93;;
17065;SDS011;23120;52.336;21.182;2022-09-11T03:29:01;7.40;;;6.80;;
17065;SDS011;23120;52.336;21.182;2022-09-11T03:31:29;8.30;;;7.50;;
17065;SDS011;23120;52.336;21.182;2022-09-11T03:33:57;7.67;;;6.93;;
17065;SDS011;23120;52.336;21.182;2022-09-11T03:36:25;8.40;;;7.10;;
17065;SDS011;23120;52.336;21.182;2022-09-11T03:38:52;7.30;;;6.70;;
17065;SDS011;23120;52.336;21.182;2022-09-11T03:41:21;7.37;;;6.67;;
17065;SDS011;23120;52.336;21.182;2022-09-11T03:43:48;7.60;;;6.80;;
17065;SDS011;23120;52.336;21.182;2022-09-11T03:46:16;7.80;;;7.10;;
17065;SDS011;23120;52.336;21.182;2022-09-11T03:48:42;7.87;;;7.07;;
17065;SDS011;23120;52.336;21.182;2022-09-11T03:51:10;7.40;;;6.70;;
17065;SDS011;23120;52.336;21.182;2022-09-11T03:53:38;7.67;;;6.97;;
17065;SDS011;23120;52.336;21.182;2022-09-11T03:56:06;7.53;;;6.83;;
17065;SDS011;23120;52.336;21.182;2022-09-11T03:58:39;8.40;;;6.93;;
17065;SDS011;23120;52.336;21.182;2022-09-11T04:01:09;8.00;;;6.87;;
17065;SDS011;23120;52.336;21.182;2022-09-11T04:03:38;7.77;;;7.07;;
17065;SDS011;23120;52.336;21.182;2022-09-11T04:06:07;8.87;;;7.97;;
17065;SDS011;23120;52.336;21.182;2022-09-11T04:08:37;7.97;;;7.27;;
17065;SDS011;23120;52.336;21.182;2022-09-11T04:11:09;8.63;;;7.77;;
17065;SDS011;23120;52.336;21.182;2022-09-11T04:13:37;8.20;;;7.40;;
17065;SDS011;23120;52.336;21.182;2022-09-11T04:16:09;8.83;;;7.93;;
17065;SDS011;23120;52.336;21.182;2022-09-11T04:18:40;8.47;;;7.67;;
17065;SDS011;23120;52.336;21.182;2022-09-11T04:21:09;8.73;;;7.93;;
17065;SDS011;23120;52.336;21.182;2022-09-11T04:23:37;9.33;;;8.40;;
17065;SDS011;23120;52.336;21.182;2022-09-11T04:26:11;9.53;;;8.63;;
17065;SDS011;23120;52.336;21.182;2022-09-11T04:28:40;10.33;;;9.33;;
17065;SDS011;23120;52.336;21.182;2022-09-11T04:31:09;9.93;;;8.50;;
17065;SDS011;23120;52.336;21.182;2022-09-11T04:33:36;9.27;;;8.37;;
17065;SDS011;23120;52.336;21.182;2022-09-11T04:36:04;9.70;;;8.77;;
17065;SDS011;23120;52.336;21.182;2022-09-11T04:38:32;9.20;;;7.90;;
17065;SDS011;23120;52.336;21.182;2022-09-11T04:41:02;9.87;;;8.97;;
17065;SDS011;23120;52.336;21.182;2022-09-11T04:43:30;8.77;;;7.87;;
17065;SDS011;23120;52.336;21.182;2022-09-11T04:46:00;9.37;;;8.47;;
17065;SDS011;23120;52.336;21.182;2022-09-11T04:48:27;9.03;;;8.07;;
17065;SDS011;23120;52.336;21.182;2022-09-11T04:50:58;8.30;;;7.50;;
17065;SDS011;23120;52.336;21.182;2022-09-11T04:53:26;8.60;;;7.77;;
17065;SDS011;23120;52.336;21.182;2022-09-11T04:56:03;9.33;;;7.30;;
17065;SDS011;23120;52.336;21.182;2022-09-11T04:58:37;8.20;;;7.40;;
17065;SDS011;23120;52.336;21.182;2022-09-11T05:01:05;8.40;;;7.60;;
17065;SDS011;23120;52.336;21.182;2022-09-11T05:03:33;8.20;;;7.37;;
17065;SDS011;23120;52.336;21.182;2022-09-11T05:06:02;9.00;;;8.20;;
17065;SDS011;23120;52.336;21.182;2022-09-11T05:08:30;8.67;;;7.77;;
17065;SDS011;23120;52.336;21.182;2022-09-11T05:10:59;9.20;;;7.53;;
17065;SDS011;23120;52.336;21.182;2022-09-11T05:13:28;8.57;;;7.73;;
17065;SDS011;23120;52.336;21.182;2022-09-11T05:15:59;8.67;;;7.83;;
17065;SDS011;23120;52.336;21.182;2022-09-11T05:18:28;7.27;;;6.57;;
17065;SDS011;23120;52.336;21.182;2022-09-11T05:20:58;7.80;;;7.00;;
17065;SDS011;23120;52.336;21.182;2022-09-11T05:23:26;7.83;;;7.13;;
17065;SDS011;23120;52.336;21.182;2022-09-11T05:25:56;7.33;;;6.33;;
17065;SDS011;23120;52.336;21.182;2022-09-11T05:28:24;8.37;;;7.33;;
17065;SDS011;23120;52.336;21.182;2022-09-11T05:30:53;7.63;;;6.93;;
17065;SDS011;23120;52.336;21.182;2022-09-11T05:33:23;8.00;;;7.20;;
17065;SDS011;23120;52.336;21.182;2022-09-11T05:35:51;7.60;;;6.90;;
17065;SDS011;23120;52.336;21.182;2022-09-11T05:38:23;7.40;;;6.43;;
17065;SDS011;23120;52.336;21.182;2022-09-11T05:40:51;7.10;;;6.50;;
17065;SDS011;23120;52.336;21.182;2022-09-11T05:43:20;7.50;;;6.80;;
17065;SDS011;23120;52.336;21.182;2022-09-11T05:45:54;7.67;;;6.80;;
17065;SDS011;23120;52.336;21.182;2022-09-11T05:48:23;7.80;;;7.00;;
17065;SDS011;23120;52.336;21.182;2022-09-11T05:50:52;7.40;;;6.70;;
17065;SDS011;23120;52.336;21.182;2022-09-11T05:53:21;7.03;;;6.33;;
17065;SDS011;23120;52.336;21.182;2022-09-11T05:55:48;7.93;;;7.13;;
17065;SDS011;23120;52.336;21.182;2022-09-11T05:58:17;7.33;;;6.60;;
17065;SDS011;23120;52.336;21.182;2022-09-11T06:00:44;8.17;;;7.20;;
17065;SDS011;23120;52.336;21.182;2022-09-11T06:03:13;8.10;;;7.40;;
17065;SDS011;23120;52.336;21.182;2022-09-11T06:05:41;7.30;;;6.60;;
17065;SDS011;23120;52.336;21.182;2022-09-11T06:08:08;8.00;;;7.10;;
17065;SDS011;23120;52.336;21.182;2022-09-11T06:10:42;8.87;;;7.03;;
17065;SDS011;23120;52.336;21.182;2022-09-11T06:13:12;9.37;;;6.60;;
17065;SDS011;23120;52.336;21.182;2022-09-11T06:15:43;7.87;;;7.07;;
17065;SDS011;23120;52.336;21.182;2022-09-11T06:18:13;8.00;;;7.20;;
17065;SDS011;23120;52.336;21.182;2022-09-11T06:20:41;8.13;;;7.30;;
17065;SDS011;23120;52.336;21.182;2022-09-11T06:23:14;8.07;;;7.27;;
17065;SDS011;23120;52.336;21.182;2022-09-11T06:25:42;9.07;;;7.20;;
17065;SDS011;23120;52.336;21.182;2022-09-11T06:28:09;8.73;;;7.57;;
17065;SDS011;23120;52.336;21.182;2022-09-11T06:30:36;9.50;;;8.20;;
17065;SDS011;23120;52.336;21.182;2022-09-11T06:33:07;9.80;;;8.10;;
17065;SDS011;23120;52.336;21.182;2022-09-11T06:35:36;10.23;;;8.13;;
17065;SDS011;23120;52.336;21.182;2022-09-11T06:38:02;8.40;;;7.57;;
17065;SDS011;23120;52.336;21.182;2022-09-11T06:40:29;8.67;;;7.70;;
17065;SDS011;23120;52.336;21.182;2022-09-11T06:42:57;8.70;;;7.87;;
17065;SDS011;23120;52.336;21.182;2022-09-11T06:45:24;10.27;;;7.87;;
17065;SDS011;23120;52.336;21.182;2022-09-11T06:47:52;9.13;;;7.53;;
17065;SDS011;23120;52.336;21.182;2022-09-11T06:50:19;9.10;;;7.57;;
17065;SDS011;23120;52.336;21.182;2022-09-11T06:53:02;9.60;;;8.20;;
17065;SDS011;23120;52.336;21.182;2022-09-11T06:55:29;11.40;;;8.10;;
17065;SDS011;23120;52.336;21.182;2022-09-11T06:58:03;10.23;;;8.03;;
17065;SDS011;23120;52.336;21.182;2022-09-11T07:00:30;8.60;;;7.80;;
17065;SDS011;23120;52.336;21.182;2022-09-11T07:02:59;8.83;;;7.80;;
17065;SDS011;23120;52.336;21.182;2022-09-11T07:05:26;9.03;;;7.87;;
17065;SDS011;23120;52.336;21.182;2022-09-11T07:07:54;12.27;;;8.17;;
17065;SDS011;23120;52.336;21.182;2022-09-11T07:10:25;10.93;;;8.33;;
17065;SDS011;23120;52.336;21.182;2022-09-11T07:12:56;9.13;;;8.17;;
17065;SDS011;23120;52.336;21.182;2022-09-11T07:15:23;11.00;;;7.77;;
17065;SDS011;23120;52.336;21.182;2022-09-11T07:17:50;9.37;;;7.77;;
17065;SDS011;23120;52.336;21.182;2022-09-11T07:20:18;9.07;;;8.13;;
17065;SDS011;23120;52.336;21.182;2022-09-11T07:22:46;13.20;;;8.40;;
17065;SDS011;23120;52.336;21.182;2022-09-11T07:25:14;8.63;;;7.87;;
17065;SDS011;23120;52.336;21.182;2022-09-11T07:27:43;12.60;;;7.90;;
17065;SDS011;23120;52.336;21.182;2022-09-11T07:30:10;11.13;;;8.67;;
17065;SDS011;23120;52.336;21.182;2022-09-11T07:32:41;8.90;;;7.83;;
17065;SDS011;23120;52.336;21.182;2022-09-11T07:35:07;15.13;;;9.03;;
17065;SDS011;23120;52.336;21.182;2022-09-11T07:37:34;10.73;;;8.57;;
17065;SDS011;23120;52.336;21.182;2022-09-11T07:40:01;13.07;;;8.63;;
17065;SDS011;23120;52.336;21.182;2022-09-11T07:42:30;10.90;;;8.30;;
17065;SDS011;23120;52.336;21.182;2022-09-11T07:44:59;9.73;;;8.53;;
17065;SDS011;23120;52.336;21.182;2022-09-11T07:47:29;10.17;;;8.43;;
17065;SDS011;23120;52.336;21.182;2022-09-11T07:49:58;9.63;;;7.90;;
17065;SDS011;23120;52.336;21.182;2022-09-11T07:52:24;9.80;;;8.67;;
17065;SDS011;23120;52.336;21.182;2022-09-11T07:54:58;9.57;;;8.60;;
17065;SDS011;23120;52.336;21.182;2022-09-11T07:57:28;10.03;;;8.03;;
17065;SDS011;23120;52.336;21.182;2022-09-11T07:59:55;9.37;;;8.47;;
17065;SDS011;23120;52.336;21.182;2022-09-11T08:02:23;14.23;;;9.33;;
17065;SDS011;23120;52.336;21.182;2022-09-11T08:04:51;10.20;;;8.13;;
17065;SDS011;23120;52.336;21.182;2022-09-11T08:07:19;9.60;;;8.00;;
17065;SDS011;23120;52.336;21.182;2022-09-11T08:09:47;12.33;;;8.03;;
17065;SDS011;23120;52.336;21.182;2022-09-11T08:12:14;9.90;;;8.23;;
17065;SDS011;23120;52.336;21.182;2022-09-11T08:14:41;9.93;;;8.03;;
17065;SDS011;23120;52.336;21.182;2022-09-11T08:17:20;10.67;;;7.53;;
17065;SDS011;23120;52.336;21.182;2022-09-11T08:19:48;9.03;;;7.80;;
17065;SDS011;23120;52.336;21.182;2022-09-11T08:22:15;7.97;;;7.17;;
17065;SDS011;23120;52.336;21.182;2022-09-11T08:24:44;9.90;;;7.23;;
17065;SDS011;23120;52.336;21.182;2022-09-11T08:27:14;8.17;;;7.37;;
17065;SDS011;23120;52.336;21.182;2022-09-11T08:29:41;9.33;;;7.07;;
17065;SDS011;23120;52.336;21.182;2022-09-11T08:32:09;8.57;;;7.67;;
17065;SDS011;23120;52.336;21.182;2022-09-11T08:34:37;8.37;;;7.57;;
17065;SDS011;23120;52.336;21.182;2022-09-11T08:37:06;9.13;;;7.50;;
17065;SDS011;23120;52.336;21.182;2022-09-11T08:39:34;9.10;;;7.17;;
17065;SDS011;23120;52.336;21.182;2022-09-11T08:42:04;8.67;;;7.10;;
17065;SDS011;23120;52.336;21.182;2022-09-11T08:44:37;9.20;;;7.13;;
17065;SDS011;23120;52.336;21.182;2022-09-11T08:47:23;7.90;;;7.13;;
17065;SDS011;23120;52.336;21.182;2022-09-11T08:49:55;9.20;;;6.83;;
17065;SDS011;23120;52.336;21.182;2022-09-11T08:52:29;7.60;;;6.80;;
17065;SDS011;23120;52.336;21.182;2022-09-11T08:54:59;8.90;;;6.70;;
17065;SDS011;23120;52.336;21.182;2022-09-11T08:57:27;9.97;;;7.47;;
17065;SDS011;23120;52.336;21.182;2022-09-11T09:00:06;6.57;;;5.97;;
17065;SDS011;23120;52.336;21.182;2022-09-11T09:05:51;5.97;;;5.37;;
17065;SDS011;23120;52.336;21.182;2022-09-11T09:08:36;6.20;;;5.57;;
17065;SDS011;23120;52.336;21.182;2022-09-11T09:11:13;7.43;;;5.30;;
17065;SDS011;23120;52.336;21.182;2022-09-11T09:16:56;6.77;;;6.17;;
17065;SDS011;23120;52.336;21.182;2022-09-11T09:19:30;6.20;;;5.60;;
17065;SDS011;23120;52.336;21.182;2022-09-11T09:22:02;10.10;;;6.63;;
17065;SDS011;23120;52.336;21.182;2022-09-11T09:24:40;7.53;;;6.23;;
17065;SDS011;23120;52.336;21.182;2022-09-11T09:27:14;9.47;;;6.83;;
17065;SDS011;23120;52.336;21.182;2022-09-11T09:29:44;6.63;;;6.00;;
17065;SDS011;23120;52.336;21.182;2022-09-11T09:32:14;8.03;;;6.03;;
17065;SDS011;23120;52.336;21.182;2022-09-11T09:34:47;7.47;;;5.80;;
17065;SDS011;23120;52.336;21.182;2022-09-11T09:37:19;6.83;;;5.47;;
17065;SDS011;23120;52.336;21.182;2022-09-11T09:39:49;7.23;;;5.10;;
17065;SDS011;23120;52.336;21.182;2022-09-11T09:42:30;5.40;;;4.90;;
17065;SDS011;23120;52.336;21.182;2022-09-11T09:45:14;6.20;;;5.33;;
17065;SDS011;23120;52.336;21.182;2022-09-11T09:47:58;8.50;;;5.23;;
17065;SDS011;23120;52.336;21.182;2022-09-11T09:50:28;5.93;;;5.00;;
17065;SDS011;23120;52.336;21.182;2022-09-11T09:53:01;5.27;;;4.77;;
17065;SDS011;23120;52.336;21.182;2022-09-11T09:55:31;6.73;;;5.20;;
17065;SDS011;23120;52.336;21.182;2022-09-11T09:58:00;6.93;;;5.13;;
17065;SDS011;23120;52.336;21.182;2022-09-11T10:00:27;6.37;;;5.60;;
17065;SDS011;23120;52.336;21.182;2022-09-11T10:02:56;5.80;;;5.10;;
17065;SDS011;23120;52.336;21.182;2022-09-11T10:05:24;5.67;;;5.17;;
17065;SDS011;23120;52.336;21.182;2022-09-11T10:07:53;5.33;;;4.80;;
17065;SDS011;23120;52.336;21.182;2022-09-11T10:10:23;7.63;;;5.43;;
17065;SDS011;23120;52.336;21.182;2022-09-11T10:12:59;7.10;;;4.80;;
17065;SDS011;23120;52.336;21.182;2022-09-11T10:15:27;9.17;;;5.43;;
17065;SDS011;23120;52.336;21.182;2022-09-11T10:17:57;5.80;;;4.40;;
17065;SDS011;23120;52.336;21.182;2022-09-11T10:20:49;8.77;;;5.00;;
17065;SDS011;23120;52.336;21.182;2022-09-11T10:23:21;5.00;;;4.60;;
17065;SDS011;23120;52.336;21.182;2022-09-11T10:25:49;7.10;;;4.97;;
17065;SDS011;23120;52.336;21.182;2022-09-11T10:28:19;7.63;;;5.33;;
17065;SDS011;23120;52.336;21.182;2022-09-11T10:30:54;5.43;;;4.93;;
17065;SDS011;23120;52.336;21.182;2022-09-11T10:33:25;7.10;;;5.20;;
17065;SDS011;23120;52.336;21.182;2022-09-11T10:35:54;6.30;;;4.87;;
17065;SDS011;23120;52.336;21.182;2022-09-11T10:38:22;6.97;;;5.57;;
17065;SDS011;23120;52.336;21.182;2022-09-11T10:41:03;5.77;;;5.10;;
17065;SDS011;23120;52.336;21.182;2022-09-11T10:43:36;5.97;;;5.33;;
17065;SDS011;23120;52.336;21.182;2022-09-11T10:46:20;6.50;;;5.50;;
17065;SDS011;23120;52.336;21.182;2022-09-11T10:48:50;5.90;;;5.40;;
17065;SDS011;23120;52.336;21.182;2022-09-11T10:51:19;5.43;;;4.93;;
17065;SDS011;23120;52.336;21.182;2022-09-11T10:53:51;6.47;;;5.70;;
17065;SDS011;23120;52.336;21.182;2022-09-11T10:56:44;6.60;;;5.93;;
17065;SDS011;23120;52.336;21.182;2022-09-11T10:59:28;7.10;;;6.00;;
17065;SDS011;23120;52.336;21.182;2022-09-11T11:02:00;7.40;;;6.27;;
17065;SDS011;23120;52.336;21.182;2022-09-11T11:04:28;6.53;;;5.80;;
17065;SDS011;23120;52.336;21.182;2022-09-11T11:06:58;6.67;;;6.07;;
17065;SDS011;23120;52.336;21.182;2022-09-11T11:09:38;6.20;;;5.60;;
17065;SDS011;23120;52.336;21.182;2022-09-11T11:12:19;6.70;;;5.77;;
17065;SDS011;23120;52.336;21.182;2022-09-11T11:15:03;9.90;;;6.23;;
17065;SDS011;23120;52.336;21.182;2022-09-11T11:17:49;6.67;;;5.97;;
17065;SDS011;23120;52.336;21.182;2022-09-11T11:20:28;7.87;;;5.70;;
17065;SDS011;23120;52.336;21.182;2022-09-11T11:23:11;8.03;;;6.37;;
17065;SDS011;23120;52.336;21.182;2022-09-11T11:25:49;7.83;;;6.37;;
17065;SDS011;23120;52.336;21.182;2022-09-11T11:28:31;9.47;;;5.70;;
17065;SDS011;23120;52.336;21.182;2022-09-11T11:31:14;7.37;;;5.63;;
17065;SDS011;23120;52.336;21.182;2022-09-11T11:34:06;7.27;;;6.40;;
17065;SDS011;23120;52.336;21.182;2022-09-11T11:36:45;7.60;;;5.83;;
17065;SDS011;23120;52.336;21.182;2022-09-11T11:39:21;7.37;;;6.63;;
17065;SDS011;23120;52.336;21.182;2022-09-11T11:41:54;9.13;;;6.20;;
17065;SDS011;23120;52.336;21.182;2022-09-11T11:44:32;8.03;;;6.57;;
17065;SDS011;23120;52.336;21.182;2022-09-11T11:47:06;7.60;;;6.80;;
17065;SDS011;23120;52.336;21.182;2022-09-11T11:49:40;8.83;;;6.10;;
17065;SDS011;23120;52.336;21.182;2022-09-11T11:52:22;10.53;;;6.77;;
17065;SDS011;23120;52.336;21.182;2022-09-11T11:54:58;13.17;;;7.60;;
17065;SDS011;23120;52.336;21.182;2022-09-11T11:57:32;7.37;;;6.57;;
17065;SDS011;23120;52.336;21.182;2022-09-11T12:00:08;7.50;;;6.67;;
17065;SDS011;23120;52.336;21.182;2022-09-11T12:02:40;10.00;;;6.77;;
17065;SDS011;23120;52.336;21.182;2022-09-11T12:05:14;7.97;;;6.83;;
17065;SDS011;23120;52.336;21.182;2022-09-11T12:07:43;8.50;;;7.23;;
17065;SDS011;23120;52.336;21.182;2022-09-11T12:10:17;12.07;;;7.17;;
17065;SDS011;23120;52.336;21.182;2022-09-11T12:12:47;13.80;;;6.93;;
17065;SDS011;23120;52.336;21.182;2022-09-11T12:15:18;8.87;;;6.80;;
17065;SDS011;23120;52.336;21.182;2022-09-11T12:17:56;11.30;;;7.23;;
17065;SDS011;23120;52.336;21.182;2022-09-11T12:20:29;7.87;;;5.90;;
17065;SDS011;23120;52.336;21.182;2022-09-11T12:22:59;6.87;;;6.27;;
17065;SDS011;23120;52.336;21.182;2022-09-11T12:25:47;9.33;;;6.50;;
17065;SDS011;23120;52.336;21.182;2022-09-11T12:28:19;8.47;;;6.40;;
17065;SDS011;23120;52.336;21.182;2022-09-11T12:30:55;7.97;;;6.33;;
17065;SDS011;23120;52.336;21.182;2022-09-11T12:36:35;10.20;;;5.27;;
17065;SDS011;23120;52.336;21.182;2022-09-11T12:39:21;6.63;;;5.90;;
17065;SDS011;23120;52.336;21.182;2022-09-11T12:41:51;8.40;;;6.03;;
17065;SDS011;23120;52.336;21.182;2022-09-11T12:44:28;6.53;;;5.70;;
17065;SDS011;23120;52.336;21.182;2022-09-11T12:49:37;7.33;;;5.70;;
17065;SDS011;23120;52.336;21.182;2022-09-11T12:52:16;7.80;;;6.07;;
17065;SDS011;23120;52.336;21.182;2022-09-11T12:54:49;7.03;;;5.73;;
17065;SDS011;23120;52.336;21.182;2022-09-11T12:57:17;6.97;;;5.77;;
17065;SDS011;23120;52.336;21.182;2022-09-11T12:59:51;6.43;;;5.30;;
17065;SDS011;23120;52.336;21.182;2022-09-11T13:02:24;8.00;;;5.27;;
17065;SDS011;23120;52.336;21.182;2022-09-11T13:04:57;6.53;;;5.13;;
17065;SDS011;23120;52.336;21.182;2022-09-11T13:07:26;5.00;;;4.50;;
17065;SDS011;23120;52.336;21.182;2022-09-11T13:10:02;7.07;;;4.47;;
17065;SDS011;23120;52.336;21.182;2022-09-11T13:12:37;6.37;;;4.93;;
17065;SDS011;23120;52.336;21.182;2022-09-11T13:18:23;7.60;;;4.23;;
17065;SDS011;23120;52.336;21.182;2022-09-11T13:21:12;5.80;;;4.17;;
17065;SDS011;23120;52.336;21.182;2022-09-11T13:23:41;7.50;;;4.20;;
17065;SDS011;23120;52.336;21.182;2022-09-11T13:26:12;5.50;;;4.13;;
17065;SDS011;23120;52.336;21.182;2022-09-11T13:28:46;4.07;;;3.60;;
17065;SDS011;23120;52.336;21.182;2022-09-11T13:31:16;5.87;;;4.13;;
17065;SDS011;23120;52.336;21.182;2022-09-11T13:33:48;4.97;;;3.70;;
17065;SDS011;23120;52.336;21.182;2022-09-11T13:36:20;6.27;;;4.00;;
17065;SDS011;23120;52.336;21.182;2022-09-11T13:38:49;7.87;;;4.00;;
17065;SDS011;23120;52.336;21.182;2022-09-11T13:41:20;4.50;;;3.33;;
17065;SDS011;23120;52.336;21.182;2022-09-11T13:43:53;4.47;;;3.43;;
17065;SDS011;23120;52.336;21.182;2022-09-11T13:46:23;3.50;;;3.20;;
17065;SDS011;23120;52.336;21.182;2022-09-11T13:48:54;5.13;;;3.53;;
17065;SDS011;23120;52.336;21.182;2022-09-11T13:51:26;4.00;;;3.53;;
17065;SDS011;23120;52.336;21.182;2022-09-11T13:53:57;4.23;;;3.37;;
17065;SDS011;23120;52.336;21.182;2022-09-11T13:56:35;6.47;;;3.30;;
17065;SDS011;23120;52.336;21.182;2022-09-11T13:59:24;5.53;;;3.03;;
17065;SDS011;23120;52.336;21.182;2022-09-11T14:02:15;4.20;;;3.10;;
17065;SDS011;23120;52.336;21.182;2022-09-11T14:04:48;5.27;;;2.90;;
17065;SDS011;23120;52.336;21.182;2022-09-11T14:07:19;2.93;;;2.73;;
17065;SDS011;23120;52.336;21.182;2022-09-11T14:09:48;3.57;;;2.50;;
17065;SDS011;23120;52.336;21.182;2022-09-11T14:12:18;3.47;;;3.00;;
17065;SDS011;23120;52.336;21.182;2022-09-11T14:14:48;5.70;;;3.13;;
17065;SDS011;23120;52.336;21.182;2022-09-11T14:17:17;3.57;;;2.73;;
17065;SDS011;23120;52.336;21.182;2022-09-11T14:19:45;3.00;;;2.70;;
17065;SDS011;23120;52.336;21.182;2022-09-11T14:22:14;4.13;;;3.60;;
17065;SDS011;23120;52.336;21.182;2022-09-11T14:24:52;4.03;;;3.03;;
17065;SDS011;23120;52.336;21.182;2022-09-11T14:27:34;4.57;;;2.97;;
17065;SDS011;23120;52.336;21.182;2022-09-11T14:33:17;5.93;;;3.23;;
17065;SDS011;23120;52.336;21.182;2022-09-11T14:35:49;5.53;;;2.80;;
17065;SDS011;23120;52.336;21.182;2022-09-11T14:38:19;4.40;;;2.20;;
17065;SDS011;23120;52.336;21.182;2022-09-11T14:40:50;5.40;;;2.50;;
17065;SDS011;23120;52.336;21.182;2022-09-11T14:43:22;3.67;;;2.13;;
17065;SDS011;23120;52.336;21.182;2022-09-11T14:45:55;3.43;;;2.27;;
17065;SDS011;23120;52.336;21.182;2022-09-11T14:48:23;3.97;;;2.50;;
17065;SDS011;23120;52.336;21.182;2022-09-11T14:50:51;3.00;;;2.00;;
17065;SDS011;23120;52.336;21.182;2022-09-11T14:53:24;2.50;;;2.30;;
17065;SDS011;23120;52.336;21.182;2022-09-11T14:55:55;2.20;;;2.10;;
17065;SDS011;23120;52.336;21.182;2022-09-11T14:58:24;2.27;;;2.03;;
17065;SDS011;23120;52.336;21.182;2022-09-11T15:00:51;2.40;;;2.20;;
17065;SDS011;23120;52.336;21.182;2022-09-11T15:03:18;3.47;;;2.13;;
17065;SDS011;23120;52.336;21.182;2022-09-11T15:05:45;3.73;;;2.20;;
17065;SDS011;23120;52.336;21.182;2022-09-11T15:08:15;2.53;;;2.00;;
17065;SDS011;23120;52.336;21.182;2022-09-11T15:10:42;6.60;;;2.30;;
17065;SDS011;23120;52.336;21.182;2022-09-11T15:13:11;4.53;;;3.77;;
17065;SDS011;23120;52.336;21.182;2022-09-11T15:15:39;6.63;;;5.27;;
17065;SDS011;23120;52.336;21.182;2022-09-11T15:18:06;6.83;;;6.07;;
17065;SDS011;23120;52.336;21.182;2022-09-11T15:20:33;8.20;;;6.30;;